sensor_id;sensor_type;location;lat;lon;timestamp;P1;durP1;ratioP1;P2;durP2;ratioP2
42092;SDS011;28974;50.316;18.960;2023-04-03T00:04:28;23.35;;;9.57;;
42092;SDS011;28974;50.316;18.960;2023-04-03T00:16:28;14.10;;;8.88;;
42092;SDS011;28974;50.316;18.960;2023-04-03T00:28:28;17.15;;;10.05;;
42092;SDS011;28974;50.316;18.960;2023-04-03T00:40:32;16.30;;;10.45;;
42092;SDS011;28974;50.316;18.960;2023-04-03T00:52:33;26.15;;;13.98;;
42092;SDS011;28974;50.316;18.960;2023-04-03T01:04:34;27.13;;;13.65;;
42092;SDS011;28974;50.316;18.960;2023-04-03T01:16:37;28.25;;;15.13;;
42092;SDS011;28974;50.316;18.960;2023-04-03T01:28:37;29.80;;;13.40;;
42092;SDS011;28974;50.316;18.960;2023-04-03T01:40:38;22.52;;;10.27;;
42092;SDS011;28974;50.316;18.960;2023-04-03T01:52:39;20.85;;;9.73;;
42092;SDS011;28974;50.316;18.960;2023-04-03T02:04:40;17.60;;;8.55;;
42092;SDS011;28974;50.316;18.960;2023-04-03T02:16:40;17.35;;;9.32;;
42092;SDS011;28974;50.316;18.960;2023-04-03T02:28:41;19.67;;;10.52;;
42092;SDS011;28974;50.316;18.960;2023-04-03T02:40:41;22.02;;;10.38;;
42092;SDS011;28974;50.316;18.960;2023-04-03T02:52:42;23.35;;;10.45;;
42092;SDS011;28974;50.316;18.960;2023-04-03T03:04:43;24.65;;;9.77;;
42092;SDS011;28974;50.316;18.960;2023-04-03T03:16:43;16.20;;;6.78;;
42092;SDS011;28974;50.316;18.960;2023-04-03T03:28:45;13.20;;;4.72;;
42092;SDS011;28974;50.316;18.960;2023-04-03T03:40:49;13.77;;;6.25;;
42092;SDS011;28974;50.316;18.960;2023-04-03T04:04:52;17.10;;;7.07;;
42092;SDS011;28974;50.316;18.960;2023-04-03T04:16:53;17.52;;;7.18;;
42092;SDS011;28974;50.316;18.960;2023-04-03T04:28:58;16.70;;;8.00;;
42092;SDS011;28974;50.316;18.960;2023-04-03T04:40:59;19.63;;;7.22;;
42092;SDS011;28974;50.316;18.960;2023-04-03T04:53:00;17.67;;;6.28;;
42092;SDS011;28974;50.316;18.960;2023-04-03T05:05:01;20.10;;;6.25;;
42092;SDS011;28974;50.316;18.960;2023-04-03T05:17:03;17.23;;;5.47;;
42092;SDS011;28974;50.316;18.960;2023-04-03T05:29:08;13.82;;;4.82;;
42092;SDS011;28974;50.316;18.960;2023-04-03T05:41:09;22.50;;;6.65;;
42092;SDS011;28974;50.316;18.960;2023-04-03T05:53:25;17.23;;;5.65;;
42092;SDS011;28974;50.316;18.960;2023-04-03T06:05:27;12.77;;;6.20;;
42092;SDS011;28974;50.316;18.960;2023-04-03T06:17:28;17.90;;;5.63;;
42092;SDS011;28974;50.316;18.960;2023-04-03T06:29:29;16.08;;;6.90;;
42092;SDS011;28974;50.316;18.960;2023-04-03T06:41:30;18.45;;;5.70;;
42092;SDS011;28974;50.316;18.960;2023-04-03T06:53:30;12.93;;;5.93;;
42092;SDS011;28974;50.316;18.960;2023-04-03T07:05:31;13.27;;;5.43;;
42092;SDS011;28974;50.316;18.960;2023-04-03T07:17:31;14.02;;;5.28;;
42092;SDS011;28974;50.316;18.960;2023-04-03T07:29:32;20.05;;;6.15;;
42092;SDS011;28974;50.316;18.960;2023-04-03T07:41:32;17.27;;;6.43;;
42092;SDS011;28974;50.316;18.960;2023-04-03T07:53:33;19.00;;;6.47;;
42092;SDS011;28974;50.316;18.960;2023-04-03T08:05:37;15.45;;;5.20;;
42092;SDS011;28974;50.316;18.960;2023-04-03T08:17:37;20.70;;;5.18;;
42092;SDS011;28974;50.316;18.960;2023-04-03T08:29:38;45.45;;;9.25;;
42092;SDS011;28974;50.316;18.960;2023-04-03T08:41:39;10.60;;;4.10;;
42092;SDS011;28974;50.316;18.960;2023-04-03T08:53:58;12.57;;;4.00;;
42092;SDS011;28974;50.316;18.960;2023-04-03T09:18:19;8.75;;;2.80;;
42092;SDS011;28974;50.316;18.960;2023-04-03T09:30:22;12.82;;;3.42;;
42092;SDS011;28974;50.316;18.960;2023-04-03T09:42:24;9.73;;;2.80;;
42092;SDS011;28974;50.316;18.960;2023-04-03T10:06:25;8.60;;;2.60;;
42092;SDS011;28974;50.316;18.960;2023-04-03T10:18:31;5.25;;;2.58;;
42092;SDS011;28974;50.316;18.960;2023-04-03T10:30:43;17.10;;;4.82;;
42092;SDS011;28974;50.316;18.960;2023-04-03T10:42:52;12.05;;;3.45;;
42092;SDS011;28974;50.316;18.960;2023-04-03T11:07:26;6.90;;;3.33;;
42092;SDS011;28974;50.316;18.960;2023-04-03T11:19:34;7.20;;;3.28;;
42092;SDS011;28974;50.316;18.960;2023-04-03T11:43:42;8.20;;;3.43;;
42092;SDS011;28974;50.316;18.960;2023-04-03T12:07:43;7.45;;;2.88;;
42092;SDS011;28974;50.316;18.960;2023-04-03T12:20:00;10.30;;;3.50;;
42092;SDS011;28974;50.316;18.960;2023-04-03T12:56:21;10.43;;;4.18;;
42092;SDS011;28974;50.316;18.960;2023-04-03T13:08:22;8.35;;;4.07;;
42092;SDS011;28974;50.316;18.960;2023-04-03T13:20:29;5.50;;;2.58;;
42092;SDS011;28974;50.316;18.960;2023-04-03T13:32:31;7.97;;;3.33;;
42092;SDS011;28974;50.316;18.960;2023-04-03T13:44:33;10.38;;;3.53;;
42092;SDS011;28974;50.316;18.960;2023-04-03T13:56:39;7.82;;;3.63;;
42092;SDS011;28974;50.316;18.960;2023-04-03T14:08:42;10.88;;;3.60;;
42092;SDS011;28974;50.316;18.960;2023-04-03T14:20:42;7.68;;;3.72;;
42092;SDS011;28974;50.316;18.960;2023-04-03T14:32:43;14.98;;;3.95;;
42092;SDS011;28974;50.316;18.960;2023-04-03T14:44:44;21.63;;;8.80;;
42092;SDS011;28974;50.316;18.960;2023-04-03T14:56:44;13.57;;;4.60;;
42092;SDS011;28974;50.316;18.960;2023-04-03T15:08:45;9.77;;;3.77;;
42092;SDS011;28974;50.316;18.960;2023-04-03T15:20:46;13.85;;;3.65;;
42092;SDS011;28974;50.316;18.960;2023-04-03T15:32:48;8.93;;;3.88;;
42092;SDS011;28974;50.316;18.960;2023-04-03T15:44:48;15.90;;;5.47;;
42092;SDS011;28974;50.316;18.960;2023-04-03T15:56:49;19.65;;;6.55;;
42092;SDS011;28974;50.316;18.960;2023-04-03T16:08:49;9.50;;;4.10;;
42092;SDS011;28974;50.316;18.960;2023-04-03T16:20:50;8.75;;;4.20;;
42092;SDS011;28974;50.316;18.960;2023-04-03T16:32:50;11.65;;;3.90;;
42092;SDS011;28974;50.316;18.960;2023-04-03T16:44:51;17.80;;;5.78;;
42092;SDS011;28974;50.316;18.960;2023-04-03T16:56:51;16.73;;;3.95;;
42092;SDS011;28974;50.316;18.960;2023-04-03T17:08:52;11.73;;;3.78;;
42092;SDS011;28974;50.316;18.960;2023-04-03T17:21:01;12.93;;;4.70;;
42092;SDS011;28974;50.316;18.960;2023-04-03T17:33:02;12.30;;;4.27;;
42092;SDS011;28974;50.316;18.960;2023-04-03T17:45:02;10.00;;;4.30;;
42092;SDS011;28974;50.316;18.960;2023-04-03T17:57:04;14.57;;;4.57;;
42092;SDS011;28974;50.316;18.960;2023-04-03T18:09:06;12.60;;;5.32;;
42092;SDS011;28974;50.316;18.960;2023-04-03T18:21:08;15.85;;;5.30;;
42092;SDS011;28974;50.316;18.960;2023-04-03T18:33:09;24.05;;;7.25;;
42092;SDS011;28974;50.316;18.960;2023-04-03T18:45:10;19.67;;;6.28;;
42092;SDS011;28974;50.316;18.960;2023-04-03T18:57:11;20.95;;;8.30;;
42092;SDS011;28974;50.316;18.960;2023-04-03T19:09:11;18.77;;;8.15;;
42092;SDS011;28974;50.316;18.960;2023-04-03T19:21:12;18.13;;;6.55;;
42092;SDS011;28974;50.316;18.960;2023-04-03T19:33:14;15.77;;;5.28;;
42092;SDS011;28974;50.316;18.960;2023-04-03T19:45:14;15.63;;;5.68;;
42092;SDS011;28974;50.316;18.960;2023-04-03T19:57:20;13.82;;;5.82;;
42092;SDS011;28974;50.316;18.960;2023-04-03T20:09:20;18.33;;;7.13;;
42092;SDS011;28974;50.316;18.960;2023-04-03T20:21:28;17.40;;;6.00;;
42092;SDS011;28974;50.316;18.960;2023-04-03T20:33:31;16.00;;;6.85;;
42092;SDS011;28974;50.316;18.960;2023-04-03T20:45:31;23.00;;;7.72;;
42092;SDS011;28974;50.316;18.960;2023-04-03T20:57:32;28.83;;;9.98;;
42092;SDS011;28974;50.316;18.960;2023-04-03T21:21:52;32.47;;;10.27;;
42092;SDS011;28974;50.316;18.960;2023-04-03T21:33:54;38.85;;;11.43;;
42092;SDS011;28974;50.316;18.960;2023-04-03T21:45:57;28.38;;;9.23;;
42092;SDS011;28974;50.316;18.960;2023-04-03T21:57:58;30.88;;;8.38;;
42092;SDS011;28974;50.316;18.960;2023-04-03T22:09:59;26.55;;;8.52;;
42092;SDS011;28974;50.316;18.960;2023-04-03T22:21:59;27.38;;;8.32;;
42092;SDS011;28974;50.316;18.960;2023-04-03T22:34:02;23.30;;;7.78;;
42092;SDS011;28974;50.316;18.960;2023-04-03T22:46:07;33.45;;;8.63;;
42092;SDS011;28974;50.316;18.960;2023-04-03T22:58:08;15.07;;;7.10;;
42092;SDS011;28974;50.316;18.960;2023-04-03T23:10:08;21.67;;;7.75;;
42092;SDS011;28974;50.316;18.960;2023-04-03T23:22:09;18.20;;;7.45;;
42092;SDS011;28974;50.316;18.960;2023-04-03T23:34:10;22.23;;;7.60;;
42092;SDS011;28974;50.316;18.960;2023-04-03T23:46:11;21.00;;;7.15;;
42092;SDS011;28974;50.316;18.960;2023-04-03T23:58:11;21.08;;;6.57;;
